createdAt,value
2023-05-17T00:00:48.223Z,8.20
2023-05-17T00:01:48.197Z,8.23
2023-05-17T00:02:48.292Z,8.24
2023-05-17T00:03:48.173Z,8.20
2023-05-17T00:04:48.281Z,8.18
2023-05-17T00:05:48.184Z,8.13
2023-05-17T00:06:48.168Z,8.12
2023-05-17T00:07:48.175Z,8.10
2023-05-17T00:08:48.144Z,8.16
2023-05-17T00:09:48.112Z,8.27
2023-05-17T00:10:48.176Z,8.31
2023-05-17T00:11:48.105Z,8.36
2023-05-17T00:12:48.126Z,8.46
2023-05-17T00:13:48.074Z,8.51
2023-05-17T00:14:48.109Z,8.55
2023-05-17T00:15:48.063Z,8.51
2023-05-17T00:16:48.077Z,8.58
2023-05-17T00:17:48.119Z,8.49
2023-05-17T00:18:48.199Z,8.48
2023-05-17T00:19:48.070Z,8.51
2023-05-17T00:20:48.018Z,8.52
2023-05-17T00:21:48.009Z,8.60
2023-05-17T00:22:48.022Z,8.53
2023-05-17T00:23:47.976Z,8.53
2023-05-17T00:24:47.982Z,8.55
2023-05-17T00:25:47.948Z,8.51
2023-05-17T00:26:47.963Z,8.51
2023-05-17T00:27:47.924Z,8.45
2023-05-17T00:28:47.996Z,8.48
2023-05-17T00:29:47.905Z,8.48
2023-05-17T00:30:47.922Z,8.46
2023-05-17T00:31:47.912Z,8.46
2023-05-17T00:32:47.918Z,8.42
2023-05-17T00:33:47.869Z,8.46
2023-05-17T00:34:47.914Z,8.45
2023-05-17T00:35:47.841Z,8.51
2023-05-17T00:36:47.848Z,8.41
2023-05-17T00:37:47.942Z,8.37
2023-05-17T00:38:47.831Z,8.41
2023-05-17T00:39:47.803Z,8.42
2023-05-17T00:40:47.834Z,8.44
2023-05-17T00:41:47.810Z,8.37
2023-05-17T00:42:47.807Z,8.36
2023-05-17T00:43:47.760Z,8.31
2023-05-17T00:44:47.784Z,8.28
2023-05-17T00:45:47.737Z,8.30
2023-05-17T00:46:47.791Z,8.34
2023-05-17T00:47:47.772Z,8.33
2023-05-17T00:48:47.771Z,8.33
2023-05-17T00:49:47.719Z,8.31
2023-05-17T00:50:47.724Z,8.34
2023-05-17T00:51:47.675Z,8.34
2023-05-17T00:52:47.700Z,8.37
2023-05-17T00:53:47.652Z,8.38
2023-05-17T00:54:47.669Z,8.34
2023-05-17T00:55:47.637Z,8.33
2023-05-17T00:56:47.641Z,8.41
2023-05-17T00:57:47.629Z,8.41
2023-05-17T00:58:47.700Z,8.37
2023-05-17T00:59:47.619Z,8.42
2023-05-17T01:00:47.621Z,8.41
2023-05-17T01:01:47.568Z,8.38
2023-05-17T01:02:47.690Z,8.36
2023-05-17T01:03:47.810Z,8.34
2023-05-17T01:04:47.605Z,8.41
2023-05-17T01:05:47.544Z,8.36
2023-05-17T01:06:47.535Z,8.33
2023-05-17T01:07:47.508Z,8.38
2023-05-17T01:08:47.525Z,8.42
2023-05-17T01:09:47.545Z,8.42
2023-05-17T01:10:47.517Z,8.36
2023-05-17T01:11:47.469Z,8.36
2023-05-17T01:12:47.476Z,8.36
2023-05-17T01:13:47.452Z,8.34
2023-05-17T01:14:47.480Z,8.45
2023-05-17T01:15:47.421Z,8.48
2023-05-17T01:16:47.457Z,8.41
2023-05-17T01:17:47.513Z,8.33
2023-05-17T01:18:47.508Z,8.20
2023-05-17T01:19:47.455Z,8.23
2023-05-17T01:20:47.391Z,8.18
2023-05-17T01:21:47.356Z,8.13
2023-05-17T01:22:47.398Z,8.10
2023-05-17T01:23:47.358Z,8.10
2023-05-17T01:24:47.359Z,8.12
2023-05-17T01:25:47.321Z,8.15
2023-05-17T01:26:47.365Z,8.16
2023-05-17T01:27:47.298Z,8.23
2023-05-17T01:28:47.346Z,8.30
2023-05-17T01:29:47.276Z,8.27
2023-05-17T01:30:47.311Z,8.23
2023-05-17T01:31:47.268Z,8.19
2023-05-17T01:32:47.342Z,8.19
2023-05-17T01:33:47.332Z,8.18
2023-05-17T01:34:47.273Z,8.16
2023-05-17T01:35:47.211Z,8.12
2023-05-17T01:36:47.223Z,8.08
2023-05-17T01:37:47.220Z,8.06
2023-05-17T01:38:47.202Z,8.12
2023-05-17T01:39:47.177Z,8.18
2023-05-17T01:40:47.205Z,8.12
2023-05-17T01:41:47.154Z,8.09
2023-05-17T01:42:47.171Z,8.10
2023-05-17T01:43:47.132Z,8.13
2023-05-17T01:44:47.140Z,8.23
2023-05-17T01:45:47.114Z,8.23
2023-05-17T01:46:47.297Z,8.18
2023-05-17T01:47:47.138Z,8.08
2023-05-17T01:48:47.154Z,8.03
2023-05-17T01:49:47.063Z,7.97
2023-05-17T01:50:47.101Z,7.91
2023-05-17T01:51:47.053Z,7.85
2023-05-17T01:52:47.074Z,7.79
2023-05-17T01:53:47.048Z,7.91
2023-05-17T01:54:47.060Z,8.00
2023-05-17T01:55:47.010Z,7.98
2023-05-17T01:56:47.028Z,7.91
2023-05-17T01:57:46.996Z,7.85
2023-05-17T01:58:47.033Z,7.77
2023-05-17T01:59:46.970Z,7.75
2023-05-17T02:00:46.983Z,7.83
2023-05-17T02:01:46.952Z,7.82
2023-05-17T02:02:46.994Z,7.77
2023-05-17T02:03:46.935Z,7.67
2023-05-17T02:04:47.048Z,7.56
2023-05-17T02:05:46.900Z,7.45
2023-05-17T02:06:46.915Z,7.35
2023-05-17T02:07:46.902Z,7.35
2023-05-17T02:08:46.892Z,7.25
2023-05-17T02:09:46.880Z,7.13
2023-05-17T02:10:46.874Z,7.03
2023-05-17T02:11:46.863Z,7.03
2023-05-17T02:12:46.847Z,7.07
2023-05-17T02:13:46.854Z,7.14
2023-05-17T02:14:46.818Z,7.13
2023-05-17T02:15:46.859Z,7.18
2023-05-17T02:16:46.804Z,7.17
2023-05-17T02:17:46.870Z,7.24
2023-05-17T02:18:46.850Z,7.29
2023-05-17T02:19:46.794Z,7.31
2023-05-17T02:20:46.755Z,7.31
2023-05-17T02:21:46.761Z,7.31
2023-05-17T02:22:46.767Z,7.35
2023-05-17T02:23:46.737Z,7.39
2023-05-17T02:24:46.719Z,7.40
2023-05-17T02:25:46.758Z,7.39
2023-05-17T02:26:46.686Z,7.39
2023-05-17T02:27:46.711Z,7.47
2023-05-17T02:28:46.684Z,7.50
2023-05-17T02:29:46.691Z,7.50
2023-05-17T02:30:46.648Z,7.54
2023-05-17T02:31:46.664Z,7.60
2023-05-17T02:32:46.729Z,7.57
2023-05-17T02:33:46.706Z,7.47
2023-05-17T02:34:46.622Z,7.43
2023-05-17T02:35:46.619Z,7.42
2023-05-17T02:36:46.583Z,7.48
2023-05-17T02:37:46.593Z,7.51
2023-05-17T02:38:46.564Z,7.50
2023-05-17T02:39:46.578Z,7.53
2023-05-17T02:40:46.580Z,7.56
2023-05-17T02:41:46.574Z,7.61
2023-05-17T02:42:46.522Z,7.67
2023-05-17T02:43:46.566Z,7.66
2023-05-17T02:44:46.501Z,7.73
2023-05-17T02:45:46.517Z,7.73
2023-05-17T02:46:46.522Z,7.77
2023-05-17T02:47:46.594Z,7.79
2023-05-17T02:48:46.462Z,7.79
2023-05-17T02:49:46.454Z,7.75
2023-05-17T02:50:46.456Z,7.69
2023-05-17T02:51:46.450Z,7.72
2023-05-17T02:52:46.439Z,7.72
2023-05-17T02:53:46.434Z,7.72
2023-05-17T02:54:46.396Z,7.76
2023-05-17T02:55:46.427Z,7.85
2023-05-17T02:56:46.371Z,7.88
2023-05-17T02:57:46.398Z,8.01
2023-05-17T02:58:46.383Z,8.03
2023-05-17T02:59:46.375Z,8.03
2023-05-17T03:00:46.395Z,8.06
2023-05-17T03:01:46.328Z,8.08
2023-05-17T03:02:46.415Z,8.08
2023-05-17T03:03:46.408Z,8.16
2023-05-17T03:04:46.490Z,8.20
2023-05-17T03:05:46.300Z,8.16
2023-05-17T03:06:46.303Z,8.18
2023-05-17T03:07:46.256Z,8.13
2023-05-17T03:08:46.312Z,8.05
2023-05-17T03:09:46.306Z,7.97
2023-05-17T03:10:46.276Z,7.91
2023-05-17T03:11:46.217Z,7.91
2023-05-17T03:12:46.235Z,7.93
2023-05-17T03:13:46.200Z,7.93
2023-05-17T03:14:46.211Z,7.91
2023-05-17T03:15:46.182Z,7.93
2023-05-17T03:16:46.253Z,7.93
2023-05-17T03:17:46.215Z,7.93
2023-05-17T03:18:46.327Z,7.90
2023-05-17T03:19:46.190Z,7.83
2023-05-17T03:20:46.139Z,7.83
2023-05-17T03:21:46.130Z,7.82
2023-05-17T03:22:46.141Z,7.85
2023-05-17T03:23:46.102Z,7.90
2023-05-17T03:24:46.106Z,7.87
2023-05-17T03:25:46.083Z,7.80
2023-05-17T03:26:46.089Z,7.77
2023-05-17T03:27:46.141Z,7.79
2023-05-17T03:28:46.101Z,7.77
2023-05-17T03:29:46.049Z,7.79
2023-05-17T03:30:46.076Z,7.85
2023-05-17T03:31:46.043Z,7.90
2023-05-17T03:32:46.104Z,7.90
2023-05-17T03:33:46.112Z,7.88
2023-05-17T03:34:46.023Z,7.93
2023-05-17T03:35:45.971Z,7.93
2023-05-17T03:36:45.977Z,7.83
2023-05-17T03:37:45.947Z,7.80
2023-05-17T03:38:45.983Z,7.77
2023-05-17T03:39:45.930Z,7.80
2023-05-17T03:40:46.001Z,7.82
2023-05-17T03:41:45.903Z,7.85
2023-05-17T03:42:45.928Z,7.90
2023-05-17T03:43:45.887Z,7.94
2023-05-17T03:44:45.908Z,7.95
2023-05-17T03:45:45.871Z,7.98
2023-05-17T03:46:45.926Z,7.94
2023-05-17T03:47:45.890Z,7.87
2023-05-17T03:48:45.907Z,7.85
2023-05-17T03:49:45.899Z,7.85
2023-05-17T03:50:45.835Z,7.82
2023-05-17T03:51:45.812Z,7.82
2023-05-17T03:52:45.838Z,7.82
2023-05-17T03:53:45.794Z,7.80
2023-05-17T03:54:48.052Z,7.82
2023-05-17T03:55:45.772Z,7.79
2023-05-17T03:56:45.790Z,7.75
2023-05-17T03:57:45.739Z,7.75
2023-05-17T03:58:45.795Z,7.76
2023-05-17T03:59:45.748Z,7.77
2023-05-17T04:00:45.726Z,7.80
2023-05-17T04:01:45.739Z,7.80
2023-05-17T04:02:45.755Z,7.83
2023-05-17T04:03:45.763Z,7.80
2023-05-17T04:04:45.762Z,7.80
2023-05-17T04:05:45.712Z,7.77
2023-05-17T04:06:45.653Z,7.77
2023-05-17T04:07:45.685Z,7.79
2023-05-17T04:08:45.688Z,7.80
2023-05-17T04:09:45.647Z,7.83
2023-05-17T04:10:45.638Z,7.83
2023-05-17T04:11:45.620Z,7.83
2023-05-17T04:12:45.587Z,7.91
2023-05-17T04:13:45.601Z,7.95
2023-05-17T04:14:45.574Z,7.95
2023-05-17T04:15:45.580Z,7.97
2023-05-17T04:16:45.559Z,7.91
2023-05-17T04:17:45.619Z,7.97
2023-05-17T04:18:45.758Z,7.95
2023-05-17T04:19:45.563Z,7.98
2023-05-17T04:20:45.514Z,7.97
2023-05-17T04:21:45.574Z,8.00
2023-05-17T04:22:45.515Z,7.97
2023-05-17T04:23:45.492Z,8.00
2023-05-17T04:24:45.482Z,8.03
2023-05-17T04:25:45.670Z,8.03
2023-05-17T04:26:45.446Z,8.06
2023-05-17T04:27:45.453Z,8.06
2023-05-17T04:28:45.454Z,8.03
2023-05-17T04:29:45.470Z,8.03
2023-05-17T04:30:45.404Z,8.06
2023-05-17T04:31:45.410Z,8.06
2023-05-17T04:32:45.434Z,8.12
2023-05-17T04:33:45.438Z,8.12
2023-05-17T04:34:45.405Z,8.16
2023-05-17T04:35:45.381Z,8.20
2023-05-17T04:36:45.332Z,8.16
2023-05-17T04:37:45.358Z,8.13
2023-05-17T04:38:45.347Z,8.10
2023-05-17T04:39:45.338Z,8.05
2023-05-17T04:40:45.438Z,8.10
2023-05-17T04:41:45.308Z,8.06
2023-05-17T04:42:45.304Z,8.06
2023-05-17T04:43:45.307Z,8.08
2023-05-17T04:44:45.252Z,8.10
2023-05-17T04:45:45.274Z,8.10
2023-05-17T04:46:45.265Z,8.10
2023-05-17T04:47:45.327Z,8.12
2023-05-17T04:48:45.279Z,8.15
2023-05-17T04:49:45.232Z,8.15
2023-05-17T04:50:45.217Z,8.18
2023-05-17T04:51:45.201Z,8.24
2023-05-17T04:52:45.225Z,8.26
2023-05-17T04:53:45.192Z,8.24
2023-05-17T04:54:45.149Z,8.31
2023-05-17T04:55:45.167Z,8.30
2023-05-17T04:56:45.127Z,8.33
2023-05-17T04:57:45.166Z,8.33
2023-05-17T04:58:45.144Z,8.36
2023-05-17T04:59:45.168Z,8.38
2023-05-17T05:00:45.092Z,8.38
2023-05-17T05:01:45.121Z,8.44
2023-05-17T05:02:45.138Z,8.44
2023-05-17T05:03:45.157Z,8.49
2023-05-17T05:04:45.155Z,8.48
2023-05-17T05:05:45.059Z,8.51
2023-05-17T05:06:45.030Z,8.55
2023-05-17T05:07:45.036Z,8.60
2023-05-17T05:08:45.011Z,8.64
2023-05-17T05:09:45.022Z,8.67
2023-05-17T05:10:45.009Z,8.73
2023-05-17T05:11:45.015Z,8.81
2023-05-17T05:12:44.961Z,8.84
2023-05-17T05:13:44.987Z,9.00
2023-05-17T05:14:44.952Z,9.11
2023-05-17T05:15:44.976Z,9.32
2023-05-17T05:16:44.949Z,9.50
2023-05-17T05:17:45.111Z,9.65
2023-05-17T05:18:45.029Z,9.82
2023-05-17T05:19:45.006Z,9.94
2023-05-17T05:20:44.895Z,10.19
2023-05-17T05:21:44.905Z,10.28
2023-05-17T05:22:44.928Z,10.38
2023-05-17T05:23:44.882Z,10.40
2023-05-17T05:24:44.838Z,10.49
2023-05-17T05:25:44.957Z,10.56
2023-05-17T05:26:44.834Z,10.76
2023-05-17T05:27:44.830Z,10.79
2023-05-17T05:28:44.817Z,10.86
2023-05-17T05:29:44.814Z,10.96
2023-05-17T05:30:44.784Z,11.08
2023-05-17T05:31:44.781Z,11.10
2023-05-17T05:32:44.825Z,11.26
2023-05-17T05:33:44.864Z,11.12
2023-05-17T05:34:44.762Z,10.96
2023-05-17T05:35:44.742Z,10.74
2023-05-17T05:36:44.728Z,10.71
2023-05-17T05:37:44.770Z,10.76
2023-05-17T05:38:44.693Z,10.75
2023-05-17T05:39:44.714Z,10.78
2023-05-17T05:40:44.760Z,10.94
2023-05-17T05:41:44.686Z,11.04
2023-05-17T05:42:44.645Z,11.18
2023-05-17T05:43:44.661Z,11.30
2023-05-17T05:44:44.624Z,11.43
2023-05-17T05:45:44.656Z,11.55
2023-05-17T05:46:44.627Z,11.65
2023-05-17T05:47:44.729Z,11.59
2023-05-17T05:48:44.635Z,11.52
2023-05-17T05:49:44.602Z,11.54
2023-05-17T05:50:44.588Z,11.43
2023-05-17T05:51:44.573Z,11.48
2023-05-17T05:52:44.569Z,11.70
2023-05-17T05:53:44.560Z,11.59
2023-05-17T05:54:44.525Z,11.55
2023-05-17T05:55:44.537Z,11.59
2023-05-17T05:56:44.519Z,11.57
2023-05-17T05:57:44.538Z,11.62
2023-05-17T05:58:44.508Z,11.65
2023-05-17T05:59:44.499Z,11.83
2023-05-17T06:00:44.459Z,11.84
2023-05-17T06:01:44.477Z,11.69
2023-05-17T06:02:44.463Z,11.65
2023-05-17T06:03:44.467Z,11.78
2023-05-17T06:04:45.948Z,11.72
2023-05-17T06:05:44.495Z,11.83
2023-05-17T06:06:44.574Z,11.81
2023-05-17T06:07:44.413Z,11.84
2023-05-17T06:08:44.375Z,11.69
2023-05-17T06:09:44.410Z,11.69
2023-05-17T06:10:44.490Z,11.47
2023-05-17T06:11:44.519Z,11.45
2023-05-17T06:12:44.330Z,11.41
2023-05-17T06:13:44.351Z,11.17
2023-05-17T06:14:44.324Z,11.17
2023-05-17T06:15:44.339Z,11.22
2023-05-17T06:16:44.310Z,11.29
2023-05-17T06:17:44.381Z,11.29
2023-05-17T06:18:44.404Z,11.23
2023-05-17T06:19:44.326Z,10.97
2023-05-17T06:20:44.254Z,10.90
2023-05-17T06:21:44.290Z,10.81
2023-05-17T06:22:44.259Z,10.78
2023-05-17T06:23:44.252Z,10.94
2023-05-17T06:24:44.209Z,11.07
2023-05-17T06:25:44.196Z,11.05
2023-05-17T06:26:44.217Z,11.10
2023-05-17T06:27:44.181Z,11.05
2023-05-17T06:28:44.210Z,11.18
2023-05-17T06:29:44.158Z,11.18
2023-05-17T06:30:44.178Z,11.30
2023-05-17T06:31:44.145Z,11.36
2023-05-17T06:32:44.211Z,11.41
2023-05-17T06:33:44.132Z,11.48
2023-05-17T06:34:44.164Z,11.54
2023-05-17T06:35:55.625Z,11.25
2023-05-17T06:36:44.098Z,10.96
2023-05-17T06:37:44.075Z,11.00
2023-05-17T06:38:44.078Z,10.87
2023-05-17T06:39:47.986Z,10.89
2023-05-17T06:40:44.074Z,10.96
2023-05-17T06:41:44.021Z,11.04
2023-05-17T06:42:44.044Z,11.07
2023-05-17T06:43:44.015Z,10.89
2023-05-17T06:44:44.019Z,10.69
2023-05-17T06:45:43.981Z,10.60
2023-05-17T06:46:44.022Z,10.61
2023-05-17T06:47:44.019Z,10.72
2023-05-17T06:48:44.157Z,10.90
2023-05-17T06:49:43.967Z,11.51
2023-05-17T06:50:43.958Z,12.02
2023-05-17T06:51:43.921Z,12.53
2023-05-17T06:52:43.953Z,12.35
2023-05-17T06:53:43.902Z,11.83
2023-05-17T06:54:44.834Z,11.70
2023-05-17T06:55:43.879Z,11.77
2023-05-17T06:56:44.024Z,12.10
2023-05-17T06:57:43.869Z,12.35
2023-05-17T06:58:44.127Z,12.45
2023-05-17T06:59:43.831Z,12.70
2023-05-17T07:00:43.852Z,12.97
2023-05-17T07:01:43.811Z,13.18
2023-05-17T07:02:43.900Z,13.47
2023-05-17T07:03:43.929Z,13.70
2023-05-17T07:04:43.889Z,14.11
2023-05-17T07:05:43.772Z,14.22
2023-05-17T07:06:43.780Z,14.40
2023-05-17T07:07:43.757Z,14.59
2023-05-17T07:08:43.761Z,14.33
2023-05-17T07:09:43.746Z,14.23
2023-05-17T07:10:43.942Z,14.25
2023-05-17T07:11:43.720Z,14.17
2023-05-17T07:12:43.727Z,14.33
2023-05-17T07:13:43.724Z,14.23
2023-05-17T07:14:43.697Z,14.14
2023-05-17T07:15:43.667Z,14.28
2023-05-17T07:16:43.985Z,14.10
2023-05-17T07:17:43.667Z,14.26
2023-05-17T07:18:43.838Z,14.30
2023-05-17T07:19:43.794Z,14.23
2023-05-17T07:20:44.333Z,13.99
2023-05-17T07:21:43.609Z,14.12
2023-05-17T07:22:43.638Z,14.11
2023-05-17T07:23:43.592Z,13.75
2023-05-17T07:24:43.589Z,13.25
2023-05-17T07:25:43.569Z,12.60
2023-05-17T07:26:43.593Z,12.43
2023-05-17T07:27:43.550Z,12.40
2023-05-17T07:28:44.254Z,12.21
2023-05-17T07:29:43.525Z,12.04
2023-05-17T07:30:43.553Z,11.62
2023-05-17T07:31:43.514Z,11.45
2023-05-17T07:32:43.557Z,11.35
2023-05-17T07:33:43.477Z,11.37
2023-05-17T07:34:43.585Z,11.36
2023-05-17T07:35:43.463Z,11.41
2023-05-17T07:36:43.586Z,11.45
2023-05-17T07:37:43.458Z,11.52
2023-05-17T07:38:43.454Z,11.48
2023-05-17T07:39:43.414Z,11.90
2023-05-17T07:40:43.443Z,12.43
2023-05-17T07:41:43.406Z,12.70
2023-05-17T07:42:43.426Z,12.87
2023-05-17T07:43:43.541Z,12.64
2023-05-17T07:44:43.389Z,12.42
2023-05-17T07:45:43.366Z,12.07
2023-05-17T07:46:43.414Z,11.91
2023-05-17T07:47:43.395Z,11.86
2023-05-17T07:48:43.714Z,11.66
2023-05-17T07:49:43.321Z,11.63
2023-05-17T07:50:43.322Z,11.57
2023-05-17T07:51:43.378Z,11.63
2023-05-17T07:52:43.418Z,11.55
2023-05-17T07:53:43.292Z,11.32
2023-05-17T07:54:43.286Z,11.22
2023-05-17T07:55:43.256Z,11.22
2023-05-17T07:56:43.258Z,11.12
2023-05-17T07:57:43.241Z,11.12
2023-05-17T07:58:43.291Z,11.27
2023-05-17T07:59:43.208Z,11.52
2023-05-17T08:00:43.220Z,11.73
2023-05-17T08:01:43.227Z,11.90
2023-05-17T08:02:43.257Z,12.04
2023-05-17T08:03:43.166Z,12.09
2023-05-17T08:04:43.241Z,12.00
2023-05-17T08:05:43.901Z,12.02
2023-05-17T08:06:43.159Z,12.12
2023-05-17T08:07:43.140Z,12.09
2023-05-17T08:08:43.146Z,12.07
2023-05-17T08:09:43.729Z,11.97
2023-05-17T08:10:43.135Z,11.87
2023-05-17T08:11:43.100Z,11.75
2023-05-17T08:12:43.109Z,11.83
2023-05-17T08:13:43.093Z,11.83
2023-05-17T08:14:43.081Z,11.78
2023-05-17T08:15:43.144Z,11.86
2023-05-17T08:16:43.069Z,12.17
2023-05-17T08:17:43.089Z,12.49
2023-05-17T08:18:43.510Z,12.83
2023-05-17T08:19:43.230Z,13.19
2023-05-17T08:20:43.014Z,13.44
2023-05-17T08:21:43.006Z,13.77
2023-05-17T08:22:43.035Z,14.23
2023-05-17T08:23:43.146Z,14.41
2023-05-17T08:24:43.086Z,14.36
2023-05-17T08:25:42.926Z,14.26
2023-05-17T08:26:42.962Z,14.18
2023-05-17T08:27:43.094Z,14.17
2023-05-17T08:28:42.948Z,14.18
2023-05-17T08:29:42.893Z,13.83
2023-05-17T08:30:42.908Z,13.90
2023-05-17T08:31:42.878Z,14.05
2023-05-17T08:32:42.922Z,14.55
2023-05-17T08:33:42.915Z,14.58
2023-05-17T08:34:43.756Z,14.25
2023-05-17T08:35:42.819Z,14.05
2023-05-17T08:36:42.889Z,13.79
2023-05-17T08:37:42.830Z,13.65
2023-05-17T08:38:42.812Z,13.47
2023-05-17T08:39:42.849Z,13.53
2023-05-17T08:40:42.840Z,13.63
2023-05-17T08:41:42.758Z,14.00
2023-05-17T08:42:42.768Z,14.08
2023-05-17T08:43:42.742Z,14.37
2023-05-17T08:44:42.745Z,14.84
2023-05-17T08:45:42.712Z,15.24
2023-05-17T08:46:42.749Z,15.58
2023-05-17T08:47:42.723Z,16.26
2023-05-17T08:48:42.728Z,16.74
2023-05-17T08:49:42.673Z,15.51
2023-05-17T08:50:42.685Z,14.58
2023-05-17T08:51:42.653Z,14.11
2023-05-17T08:52:42.746Z,13.52
2023-05-17T08:53:42.727Z,13.41
2023-05-17T08:54:42.644Z,13.46
2023-05-17T08:55:43.705Z,13.70
2023-05-17T08:56:42.632Z,14.47
2023-05-17T08:57:42.599Z,14.82
2023-05-17T08:58:55.352Z,14.14
2023-05-17T08:59:42.570Z,13.97
2023-05-17T09:00:42.574Z,13.39
2023-05-17T09:01:42.573Z,13.22
2023-05-17T09:02:42.658Z,13.12
2023-05-17T09:03:42.654Z,13.13
2023-05-17T09:04:42.633Z,12.87
2023-05-17T09:05:42.546Z,12.75
2023-05-17T09:06:42.525Z,12.62
2023-05-17T09:07:42.481Z,12.50
2023-05-17T09:08:42.493Z,13.41
2023-05-17T09:09:42.459Z,14.30
2023-05-17T09:10:42.498Z,15.15
2023-05-17T09:11:42.437Z,15.64
2023-05-17T09:12:42.462Z,15.54
2023-05-17T09:13:42.415Z,15.70
2023-05-17T09:14:42.445Z,16.04
2023-05-17T09:15:42.396Z,15.98
2023-05-17T09:16:42.432Z,16.29
2023-05-17T09:17:42.450Z,16.24
2023-05-17T09:18:42.602Z,16.04
2023-05-17T09:19:42.497Z,16.41
2023-05-17T09:20:42.367Z,17.12
2023-05-17T09:21:42.328Z,17.38
2023-05-17T09:22:42.356Z,17.22
2023-05-17T09:23:43.625Z,17.29
2023-05-17T09:24:42.331Z,17.46
2023-05-17T09:25:42.302Z,17.94
2023-05-17T09:26:42.326Z,18.52
2023-05-17T09:27:42.269Z,18.25
2023-05-17T09:28:42.375Z,17.70
2023-05-17T09:29:42.254Z,16.91
2023-05-17T09:30:42.262Z,16.60
2023-05-17T09:31:42.225Z,16.08
2023-05-17T09:32:42.283Z,15.44
2023-05-17T09:33:42.246Z,15.15
2023-05-17T09:34:42.416Z,14.84
2023-05-17T09:35:42.189Z,14.18
2023-05-17T09:36:42.289Z,13.63
2023-05-17T09:37:42.166Z,13.42
2023-05-17T09:38:42.175Z,13.18
2023-05-17T09:39:42.146Z,13.09
2023-05-17T09:40:42.218Z,12.97
2023-05-17T09:41:42.137Z,13.20
2023-05-17T09:42:42.129Z,13.68
2023-05-17T09:43:42.100Z,14.41
2023-05-17T09:44:42.123Z,15.15
2023-05-17T09:45:42.134Z,15.70
2023-05-17T09:46:42.211Z,16.15
2023-05-17T09:47:42.114Z,16.05
2023-05-17T09:48:42.130Z,17.30
2023-05-17T09:49:42.033Z,18.25
2023-05-17T09:50:42.053Z,18.86
2023-05-17T09:51:42.027Z,18.38
2023-05-17T09:52:42.061Z,17.12
2023-05-17T09:53:42.003Z,16.35
2023-05-17T09:54:42.023Z,16.38
2023-05-17T09:55:41.971Z,17.01
2023-05-17T09:56:42.129Z,17.06
2023-05-17T09:57:41.952Z,16.72
2023-05-17T09:58:41.994Z,16.58
2023-05-17T09:59:41.933Z,16.78
2023-05-17T10:00:41.940Z,16.74
2023-05-17T10:01:41.931Z,16.28
2023-05-17T10:02:42.050Z,15.79
2023-05-17T10:03:42.012Z,15.55
2023-05-17T10:04:41.970Z,15.49
2023-05-17T10:05:41.943Z,15.03
2023-05-17T10:07:41.874Z,15.19
2023-05-17T10:08:41.862Z,14.81
2023-05-17T10:09:41.825Z,14.94
2023-05-17T10:10:41.857Z,15.42
2023-05-17T10:11:41.804Z,15.73
2023-05-17T10:12:41.816Z,15.97
2023-05-17T10:13:41.784Z,16.01
2023-05-17T10:14:41.849Z,16.71
2023-05-17T10:15:41.760Z,17.34
2023-05-17T10:16:41.804Z,18.33
2023-05-17T10:17:43.912Z,19.04
2023-05-17T10:18:41.825Z,19.52
2023-05-17T10:19:41.838Z,19.37
2023-05-17T10:20:41.738Z,19.02
2023-05-17T10:21:41.698Z,18.40
2023-05-17T10:22:41.741Z,19.04
2023-05-17T10:23:41.686Z,19.24
2023-05-17T10:24:41.698Z,18.60
2023-05-17T10:25:41.674Z,17.29
2023-05-17T10:26:41.674Z,16.29
2023-05-17T10:27:41.648Z,16.00
2023-05-17T10:28:41.680Z,15.92
2023-05-17T10:29:41.622Z,16.08
2023-05-17T10:30:41.635Z,16.50
2023-05-17T10:31:41.598Z,17.34
2023-05-17T10:32:41.655Z,18.10
2023-05-17T10:33:41.698Z,19.22
2023-05-17T10:34:41.623Z,20.24
2023-05-17T10:35:41.562Z,20.96
2023-05-17T10:36:41.588Z,20.29
2023-05-17T10:37:41.577Z,19.47
2023-05-17T10:38:43.116Z,18.60
2023-05-17T10:39:41.510Z,17.71
2023-05-17T10:40:41.585Z,17.30
2023-05-17T10:41:41.526Z,16.99
2023-05-17T10:42:41.493Z,16.72
2023-05-17T10:43:41.497Z,16.90
2023-05-17T10:44:41.477Z,17.06
2023-05-17T10:45:41.466Z,16.87
2023-05-17T10:46:41.459Z,16.13
2023-05-17T10:47:41.511Z,16.41
2023-05-17T10:48:41.482Z,16.09
2023-05-17T10:49:41.594Z,16.35
2023-05-17T10:50:53.951Z,16.26
2023-05-17T10:51:41.419Z,16.21
2023-05-17T10:52:41.395Z,16.32
2023-05-17T10:53:41.392Z,16.02
2023-05-17T10:54:41.352Z,16.12
2023-05-17T10:55:41.363Z,16.56
2023-05-17T10:56:41.334Z,16.49
2023-05-17T10:58:41.342Z,16.47
2023-05-17T10:59:41.333Z,16.43
2023-05-17T11:00:41.286Z,16.23
2023-05-17T11:01:42.536Z,16.89
2023-05-17T11:02:41.308Z,17.08
2023-05-17T11:03:41.273Z,16.99
2023-05-17T11:04:41.351Z,17.16
2023-05-17T11:05:41.374Z,16.53
2023-05-17T11:06:41.297Z,16.94
2023-05-17T11:07:41.244Z,17.36
2023-05-17T11:08:41.207Z,16.97
2023-05-17T11:09:41.219Z,16.28
2023-05-17T11:10:41.196Z,16.15
2023-05-17T11:11:41.195Z,16.24
2023-05-17T11:12:41.172Z,16.01
2023-05-17T11:13:41.182Z,15.94
2023-05-17T11:14:41.161Z,16.23
2023-05-17T11:15:41.170Z,16.08
2023-05-17T11:16:41.137Z,16.16
2023-05-17T11:17:41.147Z,16.68
2023-05-17T11:18:42.151Z,16.91
2023-05-17T11:19:41.234Z,17.05
2023-05-17T11:20:41.172Z,17.23
2023-05-17T11:21:41.092Z,16.86
2023-05-17T11:22:41.073Z,16.61
2023-05-17T11:23:41.075Z,16.66
2023-05-17T11:24:41.040Z,16.69
2023-05-17T11:25:41.060Z,16.68
2023-05-17T11:26:41.024Z,16.68
2023-05-17T11:27:41.029Z,16.71
2023-05-17T11:28:41.032Z,16.39
2023-05-17T11:29:41.002Z,16.12
2023-05-17T11:30:40.976Z,16.01
2023-05-17T11:31:40.997Z,15.46
2023-05-17T11:32:41.000Z,15.22
2023-05-17T11:33:41.033Z,15.33
2023-05-17T11:34:41.003Z,15.33
2023-05-17T11:35:40.961Z,15.72
2023-05-17T11:36:40.924Z,16.56
2023-05-17T11:37:40.917Z,17.09
2023-05-17T11:38:40.891Z,17.38
2023-05-17T11:39:40.900Z,17.79
2023-05-17T11:40:40.903Z,17.95
2023-05-17T11:41:40.877Z,17.42
2023-05-17T11:42:40.860Z,17.26
2023-05-17T11:43:40.857Z,17.51
2023-05-17T11:44:40.828Z,17.70
2023-05-17T11:45:40.868Z,17.49
2023-05-17T11:46:40.820Z,17.49
2023-05-17T11:47:40.889Z,17.15
2023-05-17T11:48:40.796Z,17.15
2023-05-17T11:49:40.804Z,17.08
2023-05-17T11:50:40.765Z,17.51
2023-05-17T11:51:40.776Z,17.72
2023-05-17T11:52:40.779Z,18.19
2023-05-17T11:53:40.754Z,18.38
2023-05-17T11:54:40.782Z,18.50
2023-05-17T11:55:40.724Z,19.09
2023-05-17T11:56:43.408Z,18.66
2023-05-17T11:57:40.786Z,18.62
2023-05-17T11:58:40.700Z,18.11
2023-05-17T11:59:40.744Z,17.87
2023-05-17T12:00:40.709Z,17.48
2023-05-17T12:01:40.787Z,17.12
2023-05-17T12:02:40.655Z,17.11
2023-05-17T12:03:40.645Z,17.06
2023-05-17T12:04:40.690Z,16.76
2023-05-17T12:05:40.630Z,16.32
2023-05-17T12:06:40.691Z,16.54
2023-05-17T12:07:40.614Z,16.84
2023-05-17T12:08:40.605Z,16.41
2023-05-17T12:09:40.940Z,16.35
2023-05-17T12:10:40.581Z,16.56
2023-05-17T12:11:40.578Z,17.01
2023-05-17T12:12:40.568Z,17.56
2023-05-17T12:13:40.537Z,18.18
2023-05-17T12:14:40.598Z,18.65
2023-05-17T12:15:40.617Z,18.63
2023-05-17T12:16:40.516Z,18.55
2023-05-17T12:17:40.643Z,18.05
2023-05-17T12:18:40.748Z,18.08
2023-05-17T12:19:40.681Z,17.64
2023-05-17T12:20:40.441Z,16.97
2023-05-17T12:21:40.455Z,16.71
2023-05-17T12:22:40.470Z,16.51
2023-05-17T12:23:40.447Z,16.35
2023-05-17T12:24:40.432Z,16.01
2023-05-17T12:25:40.411Z,16.13
2023-05-17T12:26:40.380Z,16.78
2023-05-17T12:27:40.392Z,17.26
2023-05-17T12:28:40.389Z,17.83
2023-05-17T12:29:40.379Z,18.66
2023-05-17T12:30:40.331Z,19.31
2023-05-17T12:31:40.358Z,19.69
2023-05-17T12:32:40.384Z,20.07
2023-05-17T12:33:40.358Z,20.04
2023-05-17T12:34:40.337Z,19.56
2023-05-17T12:35:40.304Z,19.34
2023-05-17T12:36:40.271Z,18.50
2023-05-17T12:37:40.288Z,18.77
2023-05-17T12:38:40.268Z,19.36
2023-05-17T12:39:40.271Z,20.10
2023-05-17T12:40:42.667Z,20.87
2023-05-17T12:41:40.242Z,21.39
2023-05-17T12:42:40.206Z,21.09
2023-05-17T12:43:40.221Z,20.14
2023-05-17T12:44:40.197Z,19.15
2023-05-17T12:45:40.193Z,18.49
2023-05-17T12:46:40.199Z,18.01
2023-05-17T12:47:40.183Z,17.85
2023-05-17T12:48:40.155Z,17.48
2023-05-17T12:49:40.200Z,17.20
2023-05-17T12:50:40.128Z,17.19
2023-05-17T12:51:40.156Z,17.20
2023-05-17T12:52:40.126Z,17.30
2023-05-17T12:53:40.110Z,17.20
2023-05-17T12:54:40.100Z,17.34
2023-05-17T12:55:40.114Z,17.72
2023-05-17T12:56:40.080Z,18.15
2023-05-17T12:57:40.077Z,18.37
2023-05-17T12:58:40.057Z,18.71
2023-05-17T12:59:40.062Z,18.55
2023-05-17T13:00:40.067Z,18.19
2023-05-17T13:01:40.031Z,17.95
2023-05-17T13:02:41.229Z,17.80
2023-05-17T13:03:40.144Z,17.60
2023-05-17T13:04:40.107Z,17.42
2023-05-17T13:05:40.011Z,17.20